sensor_id;sensor_type;location;lat;lon;timestamp;temperature;humidity
19340;HTU21D;9804;52.350;6.684;2023-05-16T00:00:06;13.24;-6.00
19340;HTU21D;9804;52.350;6.684;2023-05-16T00:02:34;13.09;-6.00
19340;HTU21D;9804;52.350;6.684;2023-05-16T00:05:01;13.32;-6.00
19340;HTU21D;9804;52.350;6.684;2023-05-16T00:07:26;13.37;-6.00
19340;HTU21D;9804;52.350;6.684;2023-05-16T00:09:51;13.23;-6.00
19340;HTU21D;9804;52.350;6.684;2023-05-16T00:12:17;13.38;-6.00
19340;HTU21D;9804;52.350;6.684;2023-05-16T00:14:43;13.14;-6.00
19340;HTU21D;9804;52.350;6.684;2023-05-16T00:17:09;13.03;-6.00
19340;HTU21D;9804;52.350;6.684;2023-05-16T00:19:37;12.71;-6.00
19340;HTU21D;9804;52.350;6.684;2023-05-16T00:22:04;12.76;-6.00
19340;HTU21D;9804;52.350;6.684;2023-05-16T00:24:29;12.82;-6.00
19340;HTU21D;9804;52.350;6.684;2023-05-16T00:26:55;12.72;-6.00
19340;HTU21D;9804;52.350;6.684;2023-05-16T00:29:20;12.72;-6.00
19340;HTU21D;9804;52.350;6.684;2023-05-16T00:31:48;12.89;-6.00
19340;HTU21D;9804;52.350;6.684;2023-05-16T00:34:14;12.53;-6.00
19340;HTU21D;9804;52.350;6.684;2023-05-16T00:36:39;12.34;-6.00
19340;HTU21D;9804;52.350;6.684;2023-05-16T00:39:04;12.56;-6.00
19340;HTU21D;9804;52.350;6.684;2023-05-16T00:41:30;12.32;-6.00
19340;HTU21D;9804;52.350;6.684;2023-05-16T00:43:55;12.38;-6.00
19340;HTU21D;9804;52.350;6.684;2023-05-16T00:46:21;12.42;-6.00
19340;HTU21D;9804;52.350;6.684;2023-05-16T00:48:46;12.25;-6.00
19340;HTU21D;9804;52.350;6.684;2023-05-16T00:51:12;12.43;-6.00
19340;HTU21D;9804;52.350;6.684;2023-05-16T00:53:37;12.37;-6.00
19340;HTU21D;9804;52.350;6.684;2023-05-16T00:56:04;11.99;-6.00
19340;HTU21D;9804;52.350;6.684;2023-05-16T00:58:31;12.12;-6.00
19340;HTU21D;9804;52.350;6.684;2023-05-16T01:00:58;12.29;-6.00
19340;HTU21D;9804;52.350;6.684;2023-05-16T01:03:24;11.99;-6.00
19340;HTU21D;9804;52.350;6.684;2023-05-16T01:05:49;12.13;-6.00
19340;HTU21D;9804;52.350;6.684;2023-05-16T01:08:15;11.81;-6.00
19340;HTU21D;9804;52.350;6.684;2023-05-16T01:10:52;11.97;-6.00
19340;HTU21D;9804;52.350;6.684;2023-05-16T01:13:29;11.97;-6.00
19340;HTU21D;9804;52.350;6.684;2023-05-16T01:16:21;11.81;-6.00
19340;HTU21D;9804;52.350;6.684;2023-05-16T01:18:54;11.74;-6.00
19340;HTU21D;9804;52.350;6.684;2023-05-16T01:21:52;11.52;-6.00
19340;HTU21D;9804;52.350;6.684;2023-05-16T01:24:25;11.69;-6.00
19340;HTU21D;9804;52.350;6.684;2023-05-16T01:26:51;11.86;-6.00
19340;HTU21D;9804;52.350;6.684;2023-05-16T01:29:18;11.48;-6.00
19340;HTU21D;9804;52.350;6.684;2023-05-16T01:31:43;11.92;-6.00
19340;HTU21D;9804;52.350;6.684;2023-05-16T01:34:09;11.66;-6.00
19340;HTU21D;9804;52.350;6.684;2023-05-16T01:36:48;11.24;-6.00
19340;HTU21D;9804;52.350;6.684;2023-05-16T01:39:19;11.51;-6.00
19340;HTU21D;9804;52.350;6.684;2023-05-16T01:42:06;11.51;-6.00
19340;HTU21D;9804;52.350;6.684;2023-05-16T01:45:09;11.26;-6.00
19340;HTU21D;9804;52.350;6.684;2023-05-16T01:47:39;11.09;-6.00
19340;HTU21D;9804;52.350;6.684;2023-05-16T01:50:20;11.27;-6.00
19340;HTU21D;9804;52.350;6.684;2023-05-16T01:52:51;11.48;-6.00
19340;HTU21D;9804;52.350;6.684;2023-05-16T01:55:26;11.23;-6.00
19340;HTU21D;9804;52.350;6.684;2023-05-16T01:57:54;11.37;-6.00
19340;HTU21D;9804;52.350;6.684;2023-05-16T02:00:20;11.18;-6.00
19340;HTU21D;9804;52.350;6.684;2023-05-16T02:02:46;11.41;-6.00
19340;HTU21D;9804;52.350;6.684;2023-05-16T02:05:11;11.34;-6.00
19340;HTU21D;9804;52.350;6.684;2023-05-16T02:07:37;11.11;-6.00
19340;HTU21D;9804;52.350;6.684;2023-05-16T02:10:02;11.13;-6.00
19340;HTU21D;9804;52.350;6.684;2023-05-16T02:12:29;11.15;-6.00
19340;HTU21D;9804;52.350;6.684;2023-05-16T02:14:54;11.22;-6.00
19340;HTU21D;9804;52.350;6.684;2023-05-16T02:17:19;11.40;-6.00
19340;HTU21D;9804;52.350;6.684;2023-05-16T02:19:45;10.81;-6.00
19340;HTU21D;9804;52.350;6.684;2023-05-16T02:22:10;11.09;-6.00
19340;HTU21D;9804;52.350;6.684;2023-05-16T02:24:36;10.92;-6.00
19340;HTU21D;9804;52.350;6.684;2023-05-16T02:27:01;10.87;-6.00
19340;HTU21D;9804;52.350;6.684;2023-05-16T02:29:26;10.87;-6.00
19340;HTU21D;9804;52.350;6.684;2023-05-16T02:31:52;10.97;-6.00
19340;HTU21D;9804;52.350;6.684;2023-05-16T02:34:17;10.84;-6.00
19340;HTU21D;9804;52.350;6.684;2023-05-16T02:36:42;11.07;-6.00
19340;HTU21D;9804;52.350;6.684;2023-05-16T02:39:08;10.73;-6.00
19340;HTU21D;9804;52.350;6.684;2023-05-16T02:41:34;10.87;-6.00
19340;HTU21D;9804;52.350;6.684;2023-05-16T02:43:59;10.86;-6.00
19340;HTU21D;9804;52.350;6.684;2023-05-16T02:46:33;10.67;-6.00
19340;HTU21D;9804;52.350;6.684;2023-05-16T02:48:59;10.88;-6.00
19340;HTU21D;9804;52.350;6.684;2023-05-16T02:51:26;10.78;-6.00
19340;HTU21D;9804;52.350;6.684;2023-05-16T02:53:52;10.99;-6.00
19340;HTU21D;9804;52.350;6.684;2023-05-16T02:56:19;10.50;-6.00
19340;HTU21D;9804;52.350;6.684;2023-05-16T02:58:47;10.64;-6.00
19340;HTU21D;9804;52.350;6.684;2023-05-16T03:01:13;10.67;-6.00
19340;HTU21D;9804;52.350;6.684;2023-05-16T03:03:39;10.92;-6.00
19340;HTU21D;9804;52.350;6.684;2023-05-16T03:06:04;11.09;-6.00
19340;HTU21D;9804;52.350;6.684;2023-05-16T03:08:30;10.65;-6.00
19340;HTU21D;9804;52.350;6.684;2023-05-16T03:10:56;10.46;-6.00
19340;HTU21D;9804;52.350;6.684;2023-05-16T03:13:21;10.48;-6.00
19340;HTU21D;9804;52.350;6.684;2023-05-16T03:15:47;10.42;-6.00
19340;HTU21D;9804;52.350;6.684;2023-05-16T03:18:12;10.44;-6.00
19340;HTU21D;9804;52.350;6.684;2023-05-16T03:20:37;10.57;-6.00
19340;HTU21D;9804;52.350;6.684;2023-05-16T03:23:03;10.63;-6.00
19340;HTU21D;9804;52.350;6.684;2023-05-16T03:25:32;10.54;-6.00
19340;HTU21D;9804;52.350;6.684;2023-05-16T03:27:57;10.53;-6.00
19340;HTU21D;9804;52.350;6.684;2023-05-16T03:30:23;10.19;-6.00
19340;HTU21D;9804;52.350;6.684;2023-05-16T03:32:49;10.23;-6.00
19340;HTU21D;9804;52.350;6.684;2023-05-16T03:35:14;10.15;-6.00
19340;HTU21D;9804;52.350;6.684;2023-05-16T03:37:39;10.28;-6.00
19340;HTU21D;9804;52.350;6.684;2023-05-16T03:40:05;10.29;-6.00
19340;HTU21D;9804;52.350;6.684;2023-05-16T03:42:31;10.35;-6.00
19340;HTU21D;9804;52.350;6.684;2023-05-16T03:44:57;10.51;-6.00
19340;HTU21D;9804;52.350;6.684;2023-05-16T03:47:22;10.26;-6.00
19340;HTU21D;9804;52.350;6.684;2023-05-16T03:49:47;10.46;-6.00
19340;HTU21D;9804;52.350;6.684;2023-05-16T03:52:13;10.55;-6.00
19340;HTU21D;9804;52.350;6.684;2023-05-16T03:54:38;10.49;-6.00
19340;HTU21D;9804;52.350;6.684;2023-05-16T03:57:04;10.63;-6.00
19340;HTU21D;9804;52.350;6.684;2023-05-16T03:59:30;10.44;-6.00
19340;HTU21D;9804;52.350;6.684;2023-05-16T04:01:55;10.42;-6.00
19340;HTU21D;9804;52.350;6.684;2023-05-16T04:04:21;10.33;-6.00
19340;HTU21D;9804;52.350;6.684;2023-05-16T04:06:46;10.35;-6.00
19340;HTU21D;9804;52.350;6.684;2023-05-16T04:09:11;10.44;-6.00
19340;HTU21D;9804;52.350;6.684;2023-05-16T04:11:37;10.29;-6.00
19340;HTU21D;9804;52.350;6.684;2023-05-16T04:14:03;10.26;-6.00
19340;HTU21D;9804;52.350;6.684;2023-05-16T04:16:28;10.62;-6.00
19340;HTU21D;9804;52.350;6.684;2023-05-16T04:18:54;10.69;-6.00
19340;HTU21D;9804;52.350;6.684;2023-05-16T04:21:20;10.57;-6.00
19340;HTU21D;9804;52.350;6.684;2023-05-16T04:23:46;10.56;-6.00
19340;HTU21D;9804;52.350;6.684;2023-05-16T04:26:12;10.63;-6.00
19340;HTU21D;9804;52.350;6.684;2023-05-16T04:28:38;10.90;-6.00
19340;HTU21D;9804;52.350;6.684;2023-05-16T04:31:04;10.70;-6.00
19340;HTU21D;9804;52.350;6.684;2023-05-16T04:33:29;10.92;-6.00
19340;HTU21D;9804;52.350;6.684;2023-05-16T04:35:55;10.52;-6.00
19340;HTU21D;9804;52.350;6.684;2023-05-16T04:38:22;10.14;-6.00
19340;HTU21D;9804;52.350;6.684;2023-05-16T04:40:47;10.73;-6.00
19340;HTU21D;9804;52.350;6.684;2023-05-16T04:43:15;10.51;-6.00
19340;HTU21D;9804;52.350;6.684;2023-05-16T04:45:40;10.87;-6.00
19340;HTU21D;9804;52.350;6.684;2023-05-16T04:48:07;10.55;-6.00
19340;HTU21D;9804;52.350;6.684;2023-05-16T04:50:32;10.92;-6.00
19340;HTU21D;9804;52.350;6.684;2023-05-16T04:52:57;11.31;-6.00
19340;HTU21D;9804;52.350;6.684;2023-05-16T04:55:23;11.02;-6.00
19340;HTU21D;9804;52.350;6.684;2023-05-16T04:57:48;11.34;-6.00
19340;HTU21D;9804;52.350;6.684;2023-05-16T05:00:14;11.69;-6.00
19340;HTU21D;9804;52.350;6.684;2023-05-16T05:02:40;11.66;-6.00
19340;HTU21D;9804;52.350;6.684;2023-05-16T05:05:07;11.60;-6.00
19340;HTU21D;9804;52.350;6.684;2023-05-16T05:07:32;11.43;-6.00
19340;HTU21D;9804;52.350;6.684;2023-05-16T05:09:58;11.54;-6.00
19340;HTU21D;9804;52.350;6.684;2023-05-16T05:12:23;11.52;-6.00
19340;HTU21D;9804;52.350;6.684;2023-05-16T05:14:49;11.37;-6.00
19340;HTU21D;9804;52.350;6.684;2023-05-16T05:17:16;11.55;-6.00
19340;HTU21D;9804;52.350;6.684;2023-05-16T05:19:41;11.76;-6.00
19340;HTU21D;9804;52.350;6.684;2023-05-16T05:22:06;11.63;-6.00
19340;HTU21D;9804;52.350;6.684;2023-05-16T05:24:32;11.89;-6.00
19340;HTU21D;9804;52.350;6.684;2023-05-16T05:26:57;11.53;-6.00
19340;HTU21D;9804;52.350;6.684;2023-05-16T05:29:22;11.69;-6.00
19340;HTU21D;9804;52.350;6.684;2023-05-16T05:31:48;11.67;-6.00
19340;HTU21D;9804;52.350;6.684;2023-05-16T05:34:13;11.85;-6.00
19340;HTU21D;9804;52.350;6.684;2023-05-16T05:36:39;12.08;-6.00
19340;HTU21D;9804;52.350;6.684;2023-05-16T05:39:04;11.90;-6.00
19340;HTU21D;9804;52.350;6.684;2023-05-16T05:41:29;11.79;-6.00
19340;HTU21D;9804;52.350;6.684;2023-05-16T05:43:55;12.15;-6.00
19340;HTU21D;9804;52.350;6.684;2023-05-16T05:46:20;12.31;-6.00
19340;HTU21D;9804;52.350;6.684;2023-05-16T05:48:45;11.90;-6.00
19340;HTU21D;9804;52.350;6.684;2023-05-16T05:51:11;12.02;-6.00
19340;HTU21D;9804;52.350;6.684;2023-05-16T05:53:39;11.83;-6.00
19340;HTU21D;9804;52.350;6.684;2023-05-16T05:56:04;12.12;-6.00
19340;HTU21D;9804;52.350;6.684;2023-05-16T05:58:30;12.34;-6.00
19340;HTU21D;9804;52.350;6.684;2023-05-16T06:00:55;12.29;-6.00
19340;HTU21D;9804;52.350;6.684;2023-05-16T06:03:20;12.51;-6.00
19340;HTU21D;9804;52.350;6.684;2023-05-16T06:05:46;12.04;-6.00
19340;HTU21D;9804;52.350;6.684;2023-05-16T06:08:12;12.37;-6.00
19340;HTU21D;9804;52.350;6.684;2023-05-16T06:10:37;12.57;-6.00
19340;HTU21D;9804;52.350;6.684;2023-05-16T06:13:02;12.53;-6.00
19340;HTU21D;9804;52.350;6.684;2023-05-16T06:15:28;12.95;-6.00
19340;HTU21D;9804;52.350;6.684;2023-05-16T06:17:53;12.63;-6.00
19340;HTU21D;9804;52.350;6.684;2023-05-16T06:20:19;12.69;-6.00
19340;HTU21D;9804;52.350;6.684;2023-05-16T06:22:44;12.96;-6.00
19340;HTU21D;9804;52.350;6.684;2023-05-16T06:25:10;13.07;-6.00
19340;HTU21D;9804;52.350;6.684;2023-05-16T06:27:35;12.74;-6.00
19340;HTU21D;9804;52.350;6.684;2023-05-16T06:30:00;12.99;-6.00
19340;HTU21D;9804;52.350;6.684;2023-05-16T06:32:26;13.15;-6.00
19340;HTU21D;9804;52.350;6.684;2023-05-16T06:34:51;13.32;-6.00
19340;HTU21D;9804;52.350;6.684;2023-05-16T06:37:17;13.32;-6.00
19340;HTU21D;9804;52.350;6.684;2023-05-16T06:39:42;13.30;-6.00
19340;HTU21D;9804;52.350;6.684;2023-05-16T06:42:08;13.10;-6.00
19340;HTU21D;9804;52.350;6.684;2023-05-16T06:44:35;13.31;-6.00
19340;HTU21D;9804;52.350;6.684;2023-05-16T06:47:00;13.75;-6.00
19340;HTU21D;9804;52.350;6.684;2023-05-16T06:49:25;13.60;-6.00
19340;HTU21D;9804;52.350;6.684;2023-05-16T06:51:51;13.61;-6.00
19340;HTU21D;9804;52.350;6.684;2023-05-16T06:54:16;13.85;-6.00
19340;HTU21D;9804;52.350;6.684;2023-05-16T06:56:42;13.78;-6.00
19340;HTU21D;9804;52.350;6.684;2023-05-16T06:59:07;13.97;-6.00
19340;HTU21D;9804;52.350;6.684;2023-05-16T07:01:32;14.52;-6.00
19340;HTU21D;9804;52.350;6.684;2023-05-16T07:03:58;13.94;-6.00
19340;HTU21D;9804;52.350;6.684;2023-05-16T07:06:23;14.04;-6.00
19340;HTU21D;9804;52.350;6.684;2023-05-16T07:08:49;13.91;-6.00
19340;HTU21D;9804;52.350;6.684;2023-05-16T07:11:14;13.96;-6.00
19340;HTU21D;9804;52.350;6.684;2023-05-16T07:13:40;14.53;-6.00
19340;HTU21D;9804;52.350;6.684;2023-05-16T07:16:05;14.39;-6.00
19340;HTU21D;9804;52.350;6.684;2023-05-16T07:18:31;13.90;-6.00
19340;HTU21D;9804;52.350;6.684;2023-05-16T07:20:57;14.47;-6.00
19340;HTU21D;9804;52.350;6.684;2023-05-16T07:23:22;14.37;-6.00
19340;HTU21D;9804;52.350;6.684;2023-05-16T07:25:47;14.09;-6.00
19340;HTU21D;9804;52.350;6.684;2023-05-16T07:28:13;13.76;-6.00
19340;HTU21D;9804;52.350;6.684;2023-05-16T07:30:39;14.00;-6.00
19340;HTU21D;9804;52.350;6.684;2023-05-16T07:33:04;13.81;-6.00
19340;HTU21D;9804;52.350;6.684;2023-05-16T07:35:30;14.23;-6.00
19340;HTU21D;9804;52.350;6.684;2023-05-16T07:37:55;14.86;-6.00
19340;HTU21D;9804;52.350;6.684;2023-05-16T07:40:21;14.99;-6.00
19340;HTU21D;9804;52.350;6.684;2023-05-16T07:42:50;14.56;-6.00
19340;HTU21D;9804;52.350;6.684;2023-05-16T07:45:15;15.21;-6.00
19340;HTU21D;9804;52.350;6.684;2023-05-16T07:47:41;14.52;-6.00
19340;HTU21D;9804;52.350;6.684;2023-05-16T07:50:06;14.17;-6.00
19340;HTU21D;9804;52.350;6.684;2023-05-16T07:52:32;14.74;-6.00
19340;HTU21D;9804;52.350;6.684;2023-05-16T07:54:57;14.72;-6.00
19340;HTU21D;9804;52.350;6.684;2023-05-16T07:57:23;15.82;-6.00
19340;HTU21D;9804;52.350;6.684;2023-05-16T07:59:48;16.05;-6.00
19340;HTU21D;9804;52.350;6.684;2023-05-16T08:02:16;15.70;-6.00
19340;HTU21D;9804;52.350;6.684;2023-05-16T08:04:41;16.04;-6.00
19340;HTU21D;9804;52.350;6.684;2023-05-16T08:07:07;16.32;-6.00
19340;HTU21D;9804;52.350;6.684;2023-05-16T08:09:32;15.99;-6.00
19340;HTU21D;9804;52.350;6.684;2023-05-16T08:11:57;15.23;-6.00
19340;HTU21D;9804;52.350;6.684;2023-05-16T08:14:28;14.83;-6.00
19340;HTU21D;9804;52.350;6.684;2023-05-16T08:16:53;15.19;-6.00
19340;HTU21D;9804;52.350;6.684;2023-05-16T08:19:18;15.04;-6.00
19340;HTU21D;9804;52.350;6.684;2023-05-16T08:21:44;14.70;-6.00
19340;HTU21D;9804;52.350;6.684;2023-05-16T08:24:09;14.86;-6.00
19340;HTU21D;9804;52.350;6.684;2023-05-16T08:26:35;14.92;-6.00
19340;HTU21D;9804;52.350;6.684;2023-05-16T08:29:01;15.03;-6.00
19340;HTU21D;9804;52.350;6.684;2023-05-16T08:31:26;14.84;-6.00
19340;HTU21D;9804;52.350;6.684;2023-05-16T08:33:52;15.31;-6.00
19340;HTU21D;9804;52.350;6.684;2023-05-16T08:36:17;15.80;-6.00
19340;HTU21D;9804;52.350;6.684;2023-05-16T08:38:44;16.10;-6.00
19340;HTU21D;9804;52.350;6.684;2023-05-16T08:41:09;15.37;-6.00
19340;HTU21D;9804;52.350;6.684;2023-05-16T08:43:35;14.87;-6.00
19340;HTU21D;9804;52.350;6.684;2023-05-16T08:46:00;14.78;-6.00
19340;HTU21D;9804;52.350;6.684;2023-05-16T08:48:27;14.82;-6.00
19340;HTU21D;9804;52.350;6.684;2023-05-16T08:50:52;15.13;-6.00
19340;HTU21D;9804;52.350;6.684;2023-05-16T08:53:21;15.63;-6.00
19340;HTU21D;9804;52.350;6.684;2023-05-16T08:55:49;15.62;-6.00
19340;HTU21D;9804;52.350;6.684;2023-05-16T08:58:16;15.72;-6.00
19340;HTU21D;9804;52.350;6.684;2023-05-16T09:00:41;16.32;-6.00
19340;HTU21D;9804;52.350;6.684;2023-05-16T09:03:08;16.56;-6.00
19340;HTU21D;9804;52.350;6.684;2023-05-16T09:05:33;16.72;-6.00
19340;HTU21D;9804;52.350;6.684;2023-05-16T09:07:59;16.80;-6.00
19340;HTU21D;9804;52.350;6.684;2023-05-16T09:10:24;16.00;-6.00
19340;HTU21D;9804;52.350;6.684;2023-05-16T09:12:51;15.80;-6.00
19340;HTU21D;9804;52.350;6.684;2023-05-16T09:15:18;15.24;-6.00
19340;HTU21D;9804;52.350;6.684;2023-05-16T09:17:45;14.56;-6.00
19340;HTU21D;9804;52.350;6.684;2023-05-16T09:20:16;13.97;-6.00
19340;HTU21D;9804;52.350;6.684;2023-05-16T09:22:58;14.38;-6.00
19340;HTU21D;9804;52.350;6.684;2023-05-16T09:25:26;14.21;-6.00
19340;HTU21D;9804;52.350;6.684;2023-05-16T09:27:55;14.67;-6.00
19340;HTU21D;9804;52.350;6.684;2023-05-16T09:30:22;15.08;-6.00
19340;HTU21D;9804;52.350;6.684;2023-05-16T09:32:51;15.09;-6.00
19340;HTU21D;9804;52.350;6.684;2023-05-16T09:35:17;16.05;-6.00
19340;HTU21D;9804;52.350;6.684;2023-05-16T09:37:47;15.70;-6.00
19340;HTU21D;9804;52.350;6.684;2023-05-16T09:40:14;16.46;-6.00
19340;HTU21D;9804;52.350;6.684;2023-05-16T09:42:41;16.70;-6.00
19340;HTU21D;9804;52.350;6.684;2023-05-16T09:45:11;16.76;-6.00
19340;HTU21D;9804;52.350;6.684;2023-05-16T09:47:37;16.84;-6.00
19340;HTU21D;9804;52.350;6.684;2023-05-16T09:50:10;16.67;-6.00
19340;HTU21D;9804;52.350;6.684;2023-05-16T09:52:36;16.80;-6.00
19340;HTU21D;9804;52.350;6.684;2023-05-16T09:55:05;15.97;-6.00
19340;HTU21D;9804;52.350;6.684;2023-05-16T09:57:31;15.70;-6.00
19340;HTU21D;9804;52.350;6.684;2023-05-16T09:59:58;15.47;-6.00
19340;HTU21D;9804;52.350;6.684;2023-05-16T10:02:24;15.45;-6.00
19340;HTU21D;9804;52.350;6.684;2023-05-16T10:04:50;15.13;-6.00
19340;HTU21D;9804;52.350;6.684;2023-05-16T10:07:15;15.89;-6.00
19340;HTU21D;9804;52.350;6.684;2023-05-16T10:09:42;16.55;-6.00
19340;HTU21D;9804;52.350;6.684;2023-05-16T10:12:09;16.04;-6.00
19340;HTU21D;9804;52.350;6.684;2023-05-16T10:14:37;15.95;-6.00
19340;HTU21D;9804;52.350;6.684;2023-05-16T10:17:11;16.22;-6.00
19340;HTU21D;9804;52.350;6.684;2023-05-16T10:19:38;15.86;-6.00
19340;HTU21D;9804;52.350;6.684;2023-05-16T10:22:05;16.65;-6.00
19340;HTU21D;9804;52.350;6.684;2023-05-16T10:26:59;17.49;-6.00
19340;HTU21D;9804;52.350;6.684;2023-05-16T10:29:27;16.75;-6.00
19340;HTU21D;9804;52.350;6.684;2023-05-16T10:31:53;16.99;-6.00
19340;HTU21D;9804;52.350;6.684;2023-05-16T10:34:19;17.23;-6.00
19340;HTU21D;9804;52.350;6.684;2023-05-16T10:36:45;17.34;-6.00
19340;HTU21D;9804;52.350;6.684;2023-05-16T10:39:11;17.47;-6.00
19340;HTU21D;9804;52.350;6.684;2023-05-16T10:41:37;18.17;-6.00
19340;HTU21D;9804;52.350;6.684;2023-05-16T10:44:02;17.31;-6.00
19340;HTU21D;9804;52.350;6.684;2023-05-16T10:46:30;17.33;-6.00
19340;HTU21D;9804;52.350;6.684;2023-05-16T10:48:56;17.79;-6.00
19340;HTU21D;9804;52.350;6.684;2023-05-16T10:53:46;17.37;-6.00
19340;HTU21D;9804;52.350;6.684;2023-05-16T10:56:12;17.03;-6.00
19340;HTU21D;9804;52.350;6.684;2023-05-16T11:06:22;18.03;-6.00
19340;HTU21D;9804;52.350;6.684;2023-05-16T11:17:13;17.69;-6.00
19340;HTU21D;9804;52.350;6.684;2023-05-16T11:19:54;18.19;-6.00
19340;HTU21D;9804;52.350;6.684;2023-05-16T11:22:31;18.44;-6.00
19340;HTU21D;9804;52.350;6.684;2023-05-16T11:25:04;18.69;-6.00
19340;HTU21D;9804;52.350;6.684;2023-05-16T11:32:39;18.48;-6.00
19340;HTU21D;9804;52.350;6.684;2023-05-16T11:35:06;18.46;-6.00
19340;HTU21D;9804;52.350;6.684;2023-05-16T11:37:33;18.71;-6.00
19340;HTU21D;9804;52.350;6.684;2023-05-16T11:40:01;18.26;-6.00
19340;HTU21D;9804;52.350;6.684;2023-05-16T11:42:29;18.44;-6.00
19340;HTU21D;9804;52.350;6.684;2023-05-16T11:45:08;17.66;-6.00
19340;HTU21D;9804;52.350;6.684;2023-05-16T11:47:36;17.84;-6.00
19340;HTU21D;9804;52.350;6.684;2023-05-16T11:50:05;18.43;-6.00
19340;HTU21D;9804;52.350;6.684;2023-05-16T11:52:30;18.35;-6.00
19340;HTU21D;9804;52.350;6.684;2023-05-16T11:54:57;18.71;-6.00
19340;HTU21D;9804;52.350;6.684;2023-05-16T11:57:26;18.35;-6.00
19340;HTU21D;9804;52.350;6.684;2023-05-16T11:59:52;17.65;-6.00
19340;HTU21D;9804;52.350;6.684;2023-05-16T12:02:17;17.70;-6.00
19340;HTU21D;9804;52.350;6.684;2023-05-16T12:04:45;17.99;-6.00
19340;HTU21D;9804;52.350;6.684;2023-05-16T12:07:11;18.08;-6.00
19340;HTU21D;9804;52.350;6.684;2023-05-16T12:09:37;17.85;-6.00
19340;HTU21D;9804;52.350;6.684;2023-05-16T12:12:04;17.46;-6.00
19340;HTU21D;9804;52.350;6.684;2023-05-16T12:14:31;17.66;-6.00
19340;HTU21D;9804;52.350;6.684;2023-05-16T12:16:56;18.27;-6.00
19340;HTU21D;9804;52.350;6.684;2023-05-16T12:19:22;18.15;-6.00
19340;HTU21D;9804;52.350;6.684;2023-05-16T12:21:51;17.58;-6.00
19340;HTU21D;9804;52.350;6.684;2023-05-16T12:24:16;18.30;-6.00
19340;HTU21D;9804;52.350;6.684;2023-05-16T12:26:42;17.80;-6.00
19340;HTU21D;9804;52.350;6.684;2023-05-16T12:29:09;18.79;-6.00
19340;HTU21D;9804;52.350;6.684;2023-05-16T12:31:37;18.67;-6.00
19340;HTU21D;9804;52.350;6.684;2023-05-16T12:34:03;17.99;-6.00
19340;HTU21D;9804;52.350;6.684;2023-05-16T12:36:33;18.50;-6.00
19340;HTU21D;9804;52.350;6.684;2023-05-16T12:39:02;17.68;-6.00
19340;HTU21D;9804;52.350;6.684;2023-05-16T12:41:29;17.21;-6.00
19340;HTU21D;9804;52.350;6.684;2023-05-16T12:44:15;16.99;-6.00
19340;HTU21D;9804;52.350;6.684;2023-05-16T12:46:49;16.80;-6.00
19340;HTU21D;9804;52.350;6.684;2023-05-16T12:49:18;16.66;-6.00
19340;HTU21D;9804;52.350;6.684;2023-05-16T12:51:51;16.81;-6.00
19340;HTU21D;9804;52.350;6.684;2023-05-16T12:54:17;17.07;-6.00
19340;HTU21D;9804;52.350;6.684;2023-05-16T12:56:43;16.48;-6.00
19340;HTU21D;9804;52.350;6.684;2023-05-16T12:59:09;16.61;-6.00
19340;HTU21D;9804;52.350;6.684;2023-05-16T13:01:35;17.01;-6.00
19340;HTU21D;9804;52.350;6.684;2023-05-16T13:04:01;16.41;-6.00
19340;HTU21D;9804;52.350;6.684;2023-05-16T13:06:27;16.60;-6.00
19340;HTU21D;9804;52.350;6.684;2023-05-16T13:08:53;16.90;-6.00
19340;HTU21D;9804;52.350;6.684;2023-05-16T13:11:18;17.19;-6.00
19340;HTU21D;9804;52.350;6.684;2023-05-16T13:13:44;17.54;-6.00
19340;HTU21D;9804;52.350;6.684;2023-05-16T13:16:10;18.08;-6.00
19340;HTU21D;9804;52.350;6.684;2023-05-16T13:18:35;18.27;-6.00
19340;HTU21D;9804;52.350;6.684;2023-05-16T13:21:01;17.74;-6.00
19340;HTU21D;9804;52.350;6.684;2023-05-16T13:23:28;17.36;-6.00
19340;HTU21D;9804;52.350;6.684;2023-05-16T13:25:54;17.99;-6.00
19340;HTU21D;9804;52.350;6.684;2023-05-16T13:28:19;18.18;-6.00
19340;HTU21D;9804;52.350;6.684;2023-05-16T13:30:45;17.59;-6.00
19340;HTU21D;9804;52.350;6.684;2023-05-16T13:33:10;18.00;-6.00
19340;HTU21D;9804;52.350;6.684;2023-05-16T13:35:36;17.69;-6.00
19340;HTU21D;9804;52.350;6.684;2023-05-16T13:38:02;18.23;-6.00
19340;HTU21D;9804;52.350;6.684;2023-05-16T13:40:28;17.90;-6.00
19340;HTU21D;9804;52.350;6.684;2023-05-16T13:42:53;18.66;-6.00
19340;HTU21D;9804;52.350;6.684;2023-05-16T13:45:19;18.22;-6.00
19340;HTU21D;9804;52.350;6.684;2023-05-16T13:47:44;17.84;-6.00
19340;HTU21D;9804;52.350;6.684;2023-05-16T13:50:10;18.08;-6.00
19340;HTU21D;9804;52.350;6.684;2023-05-16T13:52:36;18.15;-6.00
19340;HTU21D;9804;52.350;6.684;2023-05-16T13:55:02;18.49;-6.00
19340;HTU21D;9804;52.350;6.684;2023-05-16T13:57:28;18.27;-6.00
19340;HTU21D;9804;52.350;6.684;2023-05-16T13:59:53;18.22;-6.00
19340;HTU21D;9804;52.350;6.684;2023-05-16T14:02:19;18.30;-6.00
19340;HTU21D;9804;52.350;6.684;2023-05-16T14:04:44;17.23;-6.00
19340;HTU21D;9804;52.350;6.684;2023-05-16T14:07:10;16.72;-6.00
19340;HTU21D;9804;52.350;6.684;2023-05-16T14:09:35;17.02;-6.00
19340;HTU21D;9804;52.350;6.684;2023-05-16T14:12:04;17.33;-6.00
19340;HTU21D;9804;52.350;6.684;2023-05-16T14:14:31;17.24;-6.00
19340;HTU21D;9804;52.350;6.684;2023-05-16T14:16:57;17.43;-6.00
19340;HTU21D;9804;52.350;6.684;2023-05-16T14:19:22;17.38;-6.00
19340;HTU21D;9804;52.350;6.684;2023-05-16T14:21:47;17.51;-6.00
19340;HTU21D;9804;52.350;6.684;2023-05-16T14:24:13;16.89;-6.00
19340;HTU21D;9804;52.350;6.684;2023-05-16T14:26:38;16.82;-6.00
19340;HTU21D;9804;52.350;6.684;2023-05-16T14:29:03;16.60;-6.00
19340;HTU21D;9804;52.350;6.684;2023-05-16T14:31:29;16.73;-6.00
19340;HTU21D;9804;52.350;6.684;2023-05-16T14:33:55;17.15;-6.00
19340;HTU21D;9804;52.350;6.684;2023-05-16T14:36:20;16.89;-6.00
19340;HTU21D;9804;52.350;6.684;2023-05-16T14:38:45;17.10;-6.00
19340;HTU21D;9804;52.350;6.684;2023-05-16T14:41:11;16.47;-6.00
19340;HTU21D;9804;52.350;6.684;2023-05-16T14:43:36;17.06;-6.00
19340;HTU21D;9804;52.350;6.684;2023-05-16T14:46:02;16.40;-6.00
19340;HTU21D;9804;52.350;6.684;2023-05-16T14:48:28;16.94;-6.00
19340;HTU21D;9804;52.350;6.684;2023-05-16T14:50:53;17.15;-6.00
19340;HTU21D;9804;52.350;6.684;2023-05-16T14:53:19;16.80;-6.00
19340;HTU21D;9804;52.350;6.684;2023-05-16T14:55:46;16.35;-6.00
19340;HTU21D;9804;52.350;6.684;2023-05-16T14:58:11;16.73;-6.00
19340;HTU21D;9804;52.350;6.684;2023-05-16T15:00:36;16.64;-6.00
19340;HTU21D;9804;52.350;6.684;2023-05-16T15:03:02;16.87;-6.00
19340;HTU21D;9804;52.350;6.684;2023-05-16T15:05:27;17.13;-6.00
19340;HTU21D;9804;52.350;6.684;2023-05-16T15:07:53;16.36;-6.00
19340;HTU21D;9804;52.350;6.684;2023-05-16T15:10:18;16.37;-6.00
19340;HTU21D;9804;52.350;6.684;2023-05-16T15:12:44;16.40;-6.00
19340;HTU21D;9804;52.350;6.684;2023-05-16T15:15:10;16.37;-6.00
19340;HTU21D;9804;52.350;6.684;2023-05-16T15:17:37;16.73;-6.00
19340;HTU21D;9804;52.350;6.684;2023-05-16T15:20:06;17.07;-6.00
19340;HTU21D;9804;52.350;6.684;2023-05-16T15:22:32;16.98;-6.00
19340;HTU21D;9804;52.350;6.684;2023-05-16T15:24:58;16.44;-6.00
19340;HTU21D;9804;52.350;6.684;2023-05-16T15:27:24;16.15;-6.00
19340;HTU21D;9804;52.350;6.684;2023-05-16T15:29:49;16.55;-6.00
19340;HTU21D;9804;52.350;6.684;2023-05-16T15:32:14;16.47;-6.00
19340;HTU21D;9804;52.350;6.684;2023-05-16T15:34:42;15.95;-6.00
19340;HTU21D;9804;52.350;6.684;2023-05-16T15:37:07;15.95;-6.00
19340;HTU21D;9804;52.350;6.684;2023-05-16T15:39:33;15.83;-6.00
19340;HTU21D;9804;52.350;6.684;2023-05-16T15:42:00;15.69;-6.00
19340;HTU21D;9804;52.350;6.684;2023-05-16T15:44:28;16.27;-6.00
19340;HTU21D;9804;52.350;6.684;2023-05-16T15:46:53;15.54;-6.00
19340;HTU21D;9804;52.350;6.684;2023-05-16T15:49:18;15.65;-6.00
19340;HTU21D;9804;52.350;6.684;2023-05-16T15:51:45;15.98;-6.00